Time;durP1;ratioP1;P1;durP2;ratioP2;P2;SDS_P1;SDS_P2;PMS_P1;PMS_P2;Temp;Humidity;BMP_temperature;BMP_pressure;BME280_temperature;BME280_humidity;BME280_pressure;Samples;Min_cycle;Max_cycle;Signal;HPM_P1;HPM_P2
2021/05/25 00:00:13;;;;;;;2.17;1.53;;;11.80;88.90;;;;;;5056494;28;20169;-87
2021/05/25 00:02:39;;;;;;;2.90;2.17;;;11.80;89.00;;;;;;5038543;28;20184;-86
2021/05/25 00:05:07;;;;;;;3.47;1.70;;;11.80;89.00;;;;;;5056439;28;20263;-86
2021/05/25 00:07:33;;;;;;;2.20;1.70;;;11.80;89.00;;;;;;5057897;22;20220;-91
2021/05/25 00:09:59;;;;;;;2.27;1.70;;;11.80;88.90;;;;;;5036559;28;20176;-90
2021/05/25 00:12:24;;;;;;;3.47;1.80;;;11.80;89.00;;;;;;5019588;28;20250;-91
2021/05/25 00:14:50;;;;;;;3.53;1.97;;;11.80;89.00;;;;;;5036411;28;20201;-92
2021/05/25 00:17:16;;;;;;;2.43;1.70;;;11.70;88.90;;;;;;5018557;28;20618;-91
2021/05/25 00:19:41;;;;;;;2.43;1.80;;;11.70;88.90;;;;;;5036257;28;20252;-90
2021/05/25 00:22:07;;;;;;;6.73;2.10;;;11.70;88.80;;;;;;5018473;28;20180;-90
2021/05/25 00:24:33;;;;;;;2.03;1.47;;;11.70;88.80;;;;;;5018490;28;20176;-91
2021/05/25 00:26:59;;;;;;;3.20;1.70;;;11.60;88.70;;;;;;5036105;28;20644;-90
2021/05/25 00:29:25;;;;;;;6.00;1.80;;;11.60;88.60;;;;;;5018411;28;20314;-91
2021/05/25 00:31:50;;;;;;;5.23;1.80;;;11.70;88.60;;;;;;5036038;28;20250;-90
2021/05/25 00:34:16;;;;;;;6.10;1.70;;;11.60;88.60;;;;;;5018371;28;20177;-90
2021/05/25 00:36:42;;;;;;;2.60;1.80;;;11.50;88.50;;;;;;5017084;28;20662;-91
2021/05/25 00:39:08;;;;;;;5.30;1.90;;;11.50;88.60;;;;;;5018050;28;20192;-91
2021/05/25 00:41:35;;;;;;;4.37;1.70;;;11.50;88.60;;;;;;5018145;28;20177;-91
2021/05/25 00:44:02;;;;;;;2.10;1.77;;;11.50;88.60;;;;;;5035826;28;20175;-90
2021/05/25 00:46:28;;;;;;;1.70;1.60;;;11.40;88.60;;;;;;5036071;28;20168;-90
2021/05/25 00:48:53;;;;;;;4.70;1.93;;;11.40;88.70;;;;;;5018111;28;20196;-91
2021/05/25 00:51:19;;;;;;;3.03;1.70;;;11.30;88.70;;;;;;5018018;28;20208;-91
2021/05/25 00:53:44;;;;;;;3.10;1.90;;;11.30;88.70;;;;;;5017997;28;20172;-90
2021/05/25 00:56:11;;;;;;;2.70;1.70;;;11.20;88.80;;;;;;5018352;28;20183;-90
2021/05/25 00:58:37;;;;;;;3.90;1.87;;;11.20;88.90;;;;;;5017873;28;20193;-90
2021/05/25 01:01:03;;;;;;;4.03;2.00;;;11.20;88.90;;;;;;5017999;28;20189;-90
2021/05/25 01:03:29;;;;;;;5.10;2.07;;;11.30;88.90;;;;;;5017838;28;20310;-90
2021/05/25 01:05:55;;;;;;;5.40;2.53;;;11.20;89.00;;;;;;5017919;28;20215;-90
2021/05/25 01:08:21;;;;;;;5.23;2.27;;;11.20;89.10;;;;;;5017841;28;20274;-91
2021/05/25 01:11:10;;;;;;;2.50;1.90;;;11.10;89.30;;;;;;5017548;28;20267;-90
2021/05/25 01:14:10;;;;;;;3.43;1.93;;;11.10;89.30;;;;;;5035365;28;20523;-90
2021/05/25 01:16:29;;;;;;;5.07;2.07;;;11.10;89.40;;;;;;5034005;28;20620;-90
2021/05/25 01:18:56;;;;;;;2.57;2.10;;;11.10;89.40;;;;;;5017613;28;20192;-90
2021/05/25 01:21:23;;;;;;;3.97;2.10;;;11.10;89.50;;;;;;5017634;28;20181;-90
2021/05/25 01:23:49;;;;;;;3.13;1.83;;;11.10;89.50;;;;;;5017581;28;20172;-91
2021/05/25 01:26:17;;;;;;;3.20;2.20;;;11.10;89.40;;;;;;5017456;28;20184;-90
2021/05/25 01:28:44;;;;;;;2.10;1.90;;;11.10;89.50;;;;;;5017389;28;20283;-90
2021/05/25 01:31:10;;;;;;;3.37;2.20;;;11.00;89.70;;;;;;5017349;28;20211;-89
2021/05/25 01:33:37;;;;;;;3.43;2.20;;;11.00;89.70;;;;;;5017326;28;20176;-90
2021/05/25 01:36:04;;;;;;;3.77;1.97;;;11.00;89.80;;;;;;5017085;28;20284;-90
2021/05/25 01:38:30;;;;;;;4.47;2.37;;;11.00;89.90;;;;;;5034748;28;20191;-90
2021/05/25 01:40:57;;;;;;;3.37;1.93;;;11.00;89.90;;;;;;5017052;28;20180;-89
2021/05/25 01:43:24;;;;;;;1.60;1.50;;;11.00;89.70;;;;;;5034640;28;20644;-90
2021/05/25 01:45:50;;;;;;;4.47;1.70;;;11.10;89.70;;;;;;5034599;28;20169;-90
2021/05/25 01:48:16;;;;;;;4.63;2.23;;;11.00;89.70;;;;;;5034347;28;20180;-91
2021/05/25 01:50:42;;;;;;;2.03;1.73;;;11.00;89.60;;;;;;5034510;28;20541;-91
2021/05/25 01:53:15;;;;;;;3.77;1.90;;;11.00;89.60;;;;;;5016851;28;20191;-90
2021/05/25 01:55:42;;;;;;;2.90;1.63;;;11.10;89.60;;;;;;5016776;28;20172;-91
2021/05/25 01:58:18;;;;;;;2.30;2.00;;;11.10;89.50;;;;;;5034285;28;20200;-91
2021/05/25 02:00:49;;;;;;;7.70;2.30;;;11.00;89.50;;;;;;5034478;28;20173;-89
2021/05/25 02:03:15;;;;;;;2.93;2.20;;;11.00;89.50;;;;;;5034450;28;20248;-90
2021/05/25 02:05:41;;;;;;;5.20;2.90;;;11.00;89.50;;;;;;5016664;28;20257;-90
2021/05/25 02:08:08;;;;;;;2.10;1.90;;;10.90;89.70;;;;;;5016726;28;20216;-90
2021/05/25 02:10:37;;;;;;;2.13;1.93;;;10.90;89.70;;;;;;5016627;28;20521;-90
2021/05/25 02:13:09;;;;;;;2.60;1.53;;;10.90;89.70;;;;;;5034172;28;20616;-91
2021/05/25 02:15:35;;;;;;;4.50;1.80;;;10.90;89.70;;;;;;5016560;28;20169;-91
2021/05/25 02:18:06;;;;;;;3.23;1.87;;;10.90;89.70;;;;;;5034011;28;20246;-92
2021/05/25 02:20:32;;;;;;;6.00;2.17;;;11.00;89.70;;;;;;5034140;28;20169;-91
2021/05/25 02:22:58;;;;;;;3.20;1.90;;;10.90;89.80;;;;;;5034175;28;20609;-90
2021/05/25 02:25:23;;;;;;;3.63;2.03;;;11.00;89.80;;;;;;5016473;28;20219;-90
2021/05/25 02:27:49;;;;;;;2.93;2.00;;;11.00;90.10;;;;;;5016079;28;20196;-90
2021/05/25 02:30:15;;;;;;;3.97;2.27;;;11.00;90.20;;;;;;5016264;28;20177;-91
2021/05/25 02:32:40;;;;;;;6.07;2.60;;;11.00;90.70;;;;;;5016113;28;20200;-90
2021/05/25 02:35:07;;;;;;;5.63;2.70;;;11.00;90.80;;;;;;5016262;28;20180;-90
2021/05/25 02:37:33;;;;;;;4.50;2.40;;;11.00;91.00;;;;;;5016778;28;20525;-90
2021/05/25 02:40:00;;;;;;;2.87;2.40;;;11.00;90.90;;;;;;5016135;28;20671;-90
2021/05/25 02:42:25;;;;;;;3.50;2.47;;;11.00;90.90;;;;;;5016167;28;20220;-90
2021/05/25 02:44:51;;;;;;;6.23;2.57;;;11.00;91.00;;;;;;5016415;28;20195;-91
2021/05/25 02:47:17;;;;;;;5.50;2.23;;;11.00;90.90;;;;;;5015959;28;20197;-91
2021/05/25 02:49:42;;;;;;;3.53;2.83;;;11.00;90.80;;;;;;5033837;28;20172;-91
2021/05/25 02:52:08;;;;;;;4.23;2.60;;;11.00;90.70;;;;;;5033548;28;20723;-91
2021/05/25 02:54:33;;;;;;;4.80;2.47;;;11.00;90.80;;;;;;5016205;28;20173;-92
2021/05/25 02:56:59;;;;;;;2.03;1.93;;;11.00;90.70;;;;;;5015940;28;20177;-91
2021/05/25 02:59:25;;;;;;;3.57;2.60;;;11.00;90.70;;;;;;5015046;28;20169;-91
2021/05/25 03:01:50;;;;;;;9.23;2.80;;;11.00;90.50;;;;;;5015956;28;20177;-91
2021/05/25 03:04:16;;;;;;;4.07;2.83;;;11.00;90.40;;;;;;5016071;28;20180;-90
2021/05/25 03:06:42;;;;;;;3.83;2.67;;;10.90;90.40;;;;;;5015604;28;20550;-90
2021/05/25 03:09:07;;;;;;;3.53;2.60;;;10.90;90.50;;;;;;5015617;28;20558;-90
2021/05/25 03:11:33;;;;;;;3.00;2.43;;;10.80;90.50;;;;;;5015562;28;20208;-90
2021/05/25 03:13:59;;;;;;;4.07;2.47;;;10.80;90.40;;;;;;5015673;28;20623;-89
2021/05/25 03:16:25;;;;;;;3.63;2.77;;;10.70;90.50;;;;;;5033237;28;20175;-89
2021/05/25 03:18:51;;;;;;;2.97;2.63;;;10.70;90.40;;;;;;5015518;28;20668;-89
2021/05/25 03:21:17;;;;;;;4.90;3.67;;;10.60;90.40;;;;;;5015510;28;20179;-89
2021/05/25 03:23:42;;;;;;;5.83;3.60;;;10.60;90.20;;;;;;5015534;28;20176;-90
2021/05/25 03:26:10;;;;;;;3.70;3.30;;;10.70;90.20;;;;;;5015669;28;20540;-89
2021/05/25 03:28:36;;;;;;;6.03;3.17;;;10.60;90.20;;;;;;5015541;28;20224;-90
2021/05/25 03:31:02;;;;;;;4.17;3.77;;;10.60;90.40;;;;;;5033020;28;20683;-90
2021/05/25 03:33:27;;;;;;;4.70;3.93;;;10.60;90.50;;;;;;5015400;28;20185;-91
2021/05/25 03:35:53;;;;;;;4.80;3.97;;;10.60;90.50;;;;;;5015424;28;20192;-89
2021/05/25 03:38:18;;;;;;;5.93;5.30;;;10.60;90.40;;;;;;5015278;28;20211;-89
2021/05/25 03:40:44;;;;;;;6.70;4.50;;;10.60;89.80;;;;;;5015274;28;20180;-89
2021/05/25 03:43:10;;;;;;;5.33;4.83;;;10.50;89.60;;;;;;5015556;28;20267;-89
2021/05/25 03:45:35;;;;;;;4.77;4.17;;;10.40;89.60;;;;;;5015548;28;20178;-88
2021/05/25 03:48:02;;;;;;;5.60;4.40;;;10.40;89.10;;;;;;5015228;28;20193;-89
2021/05/25 03:50:27;;;;;;;5.97;4.73;;;10.30;88.90;;;;;;5015551;28;20230;-90
2021/05/25 03:52:55;;;;;;;5.33;4.23;;;10.30;89.00;;;;;;5015200;28;20232;-89
2021/05/25 04:00:36;;;;;;;4.67;4.17;;;10.30;88.90;;;;;;5033317;28;20206;-90
2021/05/25 04:03:02;;;;;;;7.97;4.17;;;10.30;89.00;;;;;;5015243;28;20273;-90
2021/05/25 04:05:28;;;;;;;6.37;4.53;;;10.30;88.80;;;;;;5015770;28;20192;-90
2021/05/25 04:07:53;;;;;;;5.90;4.37;;;10.20;88.60;;;;;;5014699;28;20208;-90
2021/05/25 04:10:19;;;;;;;7.70;4.20;;;10.20;88.60;;;;;;5015596;28;20264;-90
2021/05/25 04:12:46;;;;;;;5.07;4.27;;;10.20;88.70;;;;;;5017572;28;20208;-90
2021/05/25 04:15:12;;;;;;;8.50;4.17;;;10.20;88.40;;;;;;5017658;28;20664;-90
2021/05/25 04:17:40;;;;;;;5.10;4.00;;;10.30;88.30;;;;;;5017344;28;20231;-90
2021/05/25 04:20:07;;;;;;;5.03;4.07;;;10.20;88.20;;;;;;5035130;28;20644;-90
2021/05/25 04:22:33;;;;;;;4.40;4.00;;;10.30;88.30;;;;;;5017294;28;20508;-90
2021/05/25 04:24:58;;;;;;;5.60;4.13;;;10.30;88.40;;;;;;5017539;28;20177;-90
2021/05/25 04:27:24;;;;;;;7.90;4.13;;;10.20;88.70;;;;;;5017197;28;20227;-90
2021/05/25 04:29:49;;;;;;;4.47;3.97;;;10.10;88.80;;;;;;5017303;28;20265;-90
2021/05/25 04:32:15;;;;;;;5.57;3.90;;;10.10;88.70;;;;;;5017271;28;20233;-89
2021/05/25 04:34:41;;;;;;;6.73;4.37;;;10.10;88.60;;;;;;5017944;28;20172;-90
2021/05/25 04:37:06;;;;;;;4.57;4.13;;;10.10;88.90;;;;;;5017249;28;20580;-89
2021/05/25 04:39:32;;;;;;;5.07;4.57;;;10.00;89.00;;;;;;5035156;28;20202;-90
2021/05/25 04:41:57;;;;;;;5.17;4.67;;;10.00;89.10;;;;;;5016962;28;20283;-88
2021/05/25 04:44:23;;;;;;;5.60;4.53;;;10.10;89.20;;;;;;5016939;28;20180;-89
2021/05/25 04:46:49;;;;;;;5.17;4.67;;;10.10;89.20;;;;;;5016913;28;20180;-89
2021/05/25 04:49:14;;;;;;;5.87;5.23;;;10.00;89.20;;;;;;5017093;28;20673;-89
2021/05/25 04:51:40;;;;;;;5.30;4.80;;;10.10;88.90;;;;;;5016891;28;20705;-88
2021/05/25 04:54:05;;;;;;;5.00;4.50;;;10.10;89.20;;;;;;5034561;28;20176;-88
2021/05/25 04:56:34;;;;;;;6.00;5.40;;;10.10;89.50;;;;;;5016940;28;20176;-89
2021/05/25 04:58:59;;;;;;;6.17;5.00;;;10.10;89.60;;;;;;5034562;28;20191;-90
2021/05/25 05:01:26;;;;;;;7.40;5.93;;;10.10;89.90;;;;;;5016844;28;20176;-88
2021/05/25 05:03:51;;;;;;;5.67;4.67;;;10.10;89.90;;;;;;5034330;28;20219;-89
2021/05/25 05:06:17;;;;;;;7.10;5.00;;;10.00;89.90;;;;;;5016748;28;20637;-89
2021/05/25 05:08:44;;;;;;;11.90;5.43;;;9.90;90.10;;;;;;4978956;28;1124083;-90
2021/05/25 05:11:10;;;;;;;10.77;4.50;;;9.90;90.10;;;;;;5035366;28;20208;-89
2021/05/25 05:13:36;;;;;;;4.40;3.27;;;9.90;89.90;;;;;;5017734;28;20176;-89
2021/05/25 05:16:01;;;;;;;5.73;4.60;;;9.80;90.10;;;;;;5017497;28;20177;-89
2021/05/25 05:18:27;;;;;;;4.93;4.17;;;9.70;90.60;;;;;;5017450;28;20236;-90
2021/05/25 05:20:53;;;;;;;5.10;4.60;;;9.70;90.70;;;;;;5017406;28;20180;-90
2021/05/25 05:23:18;;;;;;;4.87;4.17;;;9.70;91.00;;;;;;5016760;28;20221;-90
2021/05/25 05:25:44;;;;;;;6.33;4.30;;;9.60;90.90;;;;;;5017332;28;20654;-90
2021/05/25 05:28:10;;;;;;;8.37;4.70;;;9.60;91.00;;;;;;5017261;28;20200;-90
2021/05/25 05:30:35;;;;;;;6.33;4.80;;;9.60;91.40;;;;;;5017253;28;20172;-89
2021/05/25 05:33:02;;;;;;;5.43;4.83;;;9.60;91.40;;;;;;5017474;28;20673;-89
2021/05/25 05:35:27;;;;;;;4.70;4.27;;;9.60;91.50;;;;;;5017153;28;20653;-88
2021/05/25 05:37:53;;;;;;;4.77;4.13;;;9.60;91.20;;;;;;5017053;28;20197;-87
2021/05/25 05:40:18;;;;;;;5.27;4.20;;;9.60;91.20;;;;;;5035866;28;20180;-87
2021/05/25 05:42:44;;;;;;;6.17;4.63;;;9.70;91.30;;;;;;5017225;28;20242;-87
2021/05/25 05:45:10;;;;;;;4.50;4.10;;;9.70;91.40;;;;;;5034603;28;20181;-87
2021/05/25 05:47:36;;;;;;;4.93;4.40;;;9.70;91.00;;;;;;5034527;28;20200;-86
2021/05/25 05:50:10;;;;;;;5.33;4.40;;;9.70;90.80;;;;;;5016793;28;20188;-87
2021/05/25 05:52:37;;;;;;;5.93;4.87;;;9.80;90.80;;;;;;5016802;28;20230;-87
2021/05/25 05:55:03;;;;;;;6.77;5.07;;;9.80;90.90;;;;;;5018740;28;20180;-89
2021/05/25 05:57:29;;;;;;;5.67;5.17;;;9.80;91.00;;;;;;5036001;28;20219;-86
2021/05/25 05:59:55;;;;;;;7.00;5.20;;;9.80;91.10;;;;;;5017439;28;20246;-88
2021/05/25 06:02:20;;;;;;;7.07;5.73;;;9.80;91.20;;;;;;5034654;28;20181;-87
2021/05/25 06:04:46;;;;;;;6.60;5.93;;;9.80;90.90;;;;;;5034301;28;20648;-87
2021/05/25 06:07:11;;;;;;;6.57;5.77;;;9.80;91.00;;;;;;5035642;28;20185;-85
2021/05/25 06:09:37;;;;;;;6.83;6.00;;;9.90;91.00;;;;;;5060043;22;20233;-89
2021/05/25 06:12:04;;;;;;;7.77;7.07;;;9.90;91.00;;;;;;5034287;28;20188;-89
2021/05/25 06:14:29;;;;;;;7.03;6.30;;;9.90;90.90;;;;;;5016595;28;20181;-89
2021/05/25 06:16:55;;;;;;;8.17;7.37;;;10.00;91.00;;;;;;5034289;28;20169;-89
2021/05/25 06:19:21;;;;;;;7.23;6.63;;;10.00;90.80;;;;;;5016554;28;20193;-89
2021/05/25 06:21:46;;;;;;;7.53;6.80;;;10.00;90.60;;;;;;5016437;28;20188;-89
2021/05/25 06:24:15;;;;;;;7.90;7.17;;;10.20;90.80;;;;;;5033994;28;20184;-89
2021/05/25 06:26:41;;;;;;;7.47;6.77;;;10.30;90.70;;;;;;5016246;28;20185;-89
2021/05/25 06:29:06;;;;;;;9.17;7.00;;;10.30;90.70;;;;;;5033883;28;20193;-89
2021/05/25 06:31:32;;;;;;;8.30;7.50;;;10.30;90.60;;;;;;5016107;28;20210;-89
2021/05/25 06:33:57;;;;;;;9.80;8.90;;;10.30;90.60;;;;;;5016086;28;20238;-88
2021/05/25 06:36:23;;;;;;;9.10;8.30;;;10.40;90.60;;;;;;5033834;28;20169;-88
2021/05/25 06:38:49;;;;;;;10.07;9.07;;;10.40;90.40;;;;;;5033681;28;20194;-89
2021/05/25 06:41:14;;;;;;;10.33;9.30;;;10.30;90.20;;;;;;5033641;28;20252;-88
2021/05/25 06:43:40;;;;;;;10.77;7.93;;;10.30;90.20;;;;;;5033626;28;20199;-88
2021/05/25 06:46:07;;;;;;;9.23;8.30;;;10.30;89.60;;;;;;5015908;28;20228;-88
2021/05/25 06:48:33;;;;;;;9.07;8.27;;;10.30;90.00;;;;;;5015868;28;20208;-88
2021/05/25 06:51:00;;;;;;;8.90;8.00;;;10.40;89.60;;;;;;5033460;28;20185;-88
2021/05/25 06:53:26;;;;;;;8.77;7.57;;;10.50;89.70;;;;;;5033499;28;20173;-88
2021/05/25 06:55:52;;;;;;;8.30;7.53;;;10.60;89.90;;;;;;5015829;28;20595;-89
2021/05/25 06:58:17;;;;;;;9.17;8.03;;;10.70;89.20;;;;;;5033408;28;20284;-88
2021/05/25 07:00:43;;;;;;;9.10;8.30;;;10.60;88.40;;;;;;5016021;28;20227;-88
2021/05/25 07:03:08;;;;;;;10.17;7.93;;;10.50;89.10;;;;;;5033367;28;20215;-87
2021/05/25 07:05:34;;;;;;;9.13;8.33;;;10.50;88.50;;;;;;5015708;28;20185;-88
2021/05/25 07:08:01;;;;;;;7.47;6.73;;;10.50;88.70;;;;;;5015442;28;20707;-88
2021/05/25 07:10:27;;;;;;;7.30;6.50;;;10.60;88.50;;;;;;5015731;28;20165;-87
2021/05/25 07:12:52;;;;;;;7.30;6.60;;;10.60;87.90;;;;;;5033160;28;20716;-88
2021/05/25 07:15:19;;;;;;;10.10;7.27;;;10.60;88.30;;;;;;5033181;28;20223;-87
2021/05/25 07:17:46;;;;;;;7.10;6.47;;;10.60;87.60;;;;;;5015460;28;20176;-87
2021/05/25 07:20:13;;;;;;;6.77;6.07;;;10.60;87.80;;;;;;5015543;28;20666;-87
2021/05/25 07:22:38;;;;;;;8.23;5.77;;;10.60;87.50;;;;;;5015471;28;20197;-87
2021/05/25 07:25:04;;;;;;;6.67;5.53;;;10.60;87.40;;;;;;5015543;28;20267;-87
2021/05/25 07:27:30;;;;;;;8.27;6.17;;;10.70;88.20;;;;;;5033034;28;20608;-87
2021/05/25 07:29:55;;;;;;;6.10;5.50;;;10.90;87.90;;;;;;5015375;28;20240;-88
2021/05/25 07:32:21;;;;;;;10.40;6.40;;;11.00;87.00;;;;;;5015332;28;20299;-88
2021/05/25 07:34:47;;;;;;;6.53;5.80;;;11.00;87.10;;;;;;5033065;28;20173;-87
2021/05/25 07:37:12;;;;;;;5.73;5.23;;;11.00;86.90;;;;;;5015441;28;20236;-87
2021/05/25 07:39:38;;;;;;;4.63;4.23;;;10.80;86.90;;;;;;5015241;28;20219;-87
2021/05/25 07:42:04;;;;;;;5.47;4.97;;;10.70;85.90;;;;;;5033213;28;20195;-87
2021/05/25 07:44:29;;;;;;;7.50;5.53;;;10.70;86.70;;;;;;5033023;28;20269;-87
2021/05/25 07:46:57;;;;;;;5.10;4.67;;;10.80;86.70;;;;;;5019108;28;20182;-87
2021/05/25 07:49:23;;;;;;;9.40;4.20;;;11.00;87.20;;;;;;5036723;28;20200;-85
2021/05/25 07:51:49;;;;;;;3.50;3.20;;;10.90;85.40;;;;;;5018938;28;20291;-85
2021/05/25 07:54:15;;;;;;;4.27;3.80;;;10.80;84.90;;;;;;5019002;28;20582;-88
2021/05/25 07:56:41;;;;;;;3.30;2.67;;;10.90;85.90;;;;;;5018990;28;20264;-85
2021/05/25 07:59:07;;;;;;;2.90;2.10;;;11.00;84.20;;;;;;5018821;28;20668;-85
2021/05/25 08:01:32;;;;;;;2.70;2.10;;;10.90;83.60;;;;;;5018910;28;20228;-85
2021/05/25 08:03:58;;;;;;;2.87;2.00;;;10.90;84.40;;;;;;5018914;28;20255;-85
2021/05/25 08:06:23;;;;;;;2.23;1.70;;;10.90;83.90;;;;;;5036652;28;20180;-85
2021/05/25 08:08:49;;;;;;;2.00;1.90;;;10.70;84.20;;;;;;5018661;28;20220;-85
2021/05/25 08:11:14;;;;;;;2.20;1.93;;;10.70;83.40;;;;;;5036607;28;20197;-85
2021/05/25 08:13:43;;;;;;;1.93;1.73;;;10.60;83.30;;;;;;5036321;28;20169;-85
2021/05/25 08:16:10;;;;;;;2.10;2.00;;;10.70;83.70;;;;;;5018604;28;20185;-85
2021/05/25 08:21:14;;;;;;;2.23;2.03;;;10.70;83.70;;;;;;5036752;28;20625;-85
2021/05/25 08:23:41;;;;;;;2.83;2.13;;;10.80;83.80;;;;;;5036183;28;20530;-86
2021/05/25 08:26:07;;;;;;;2.57;2.20;;;11.00;84.80;;;;;;5036425;28;20544;-86
2021/05/25 08:28:33;;;;;;;2.07;1.87;;;11.00;84.20;;;;;;5018218;28;20287;-85
2021/05/25 08:30:59;;;;;;;1.77;1.67;;;11.00;84.40;;;;;;5018193;28;20214;-85
2021/05/25 08:33:24;;;;;;;3.70;2.27;;;11.00;84.10;;;;;;5035958;28;20680;-86
2021/05/25 08:35:50;;;;;;;1.83;1.73;;;11.00;84.20;;;;;;5036075;28;20173;-85
2021/05/25 08:38:22;;;;;;;3.37;1.87;;;11.10;83.50;;;;;;5018136;28;20647;-85
2021/05/25 08:40:53;;;;;;;2.77;1.90;;;11.30;84.50;;;;;;5018175;28;20193;-86
2021/05/25 08:43:20;;;;;;;3.73;1.70;;;11.50;83.90;;;;;;5018117;28;20173;-86
2021/05/25 08:45:46;;;;;;;2.33;1.80;;;11.60;82.90;;;;;;5018380;28;20551;-86
2021/05/25 08:48:12;;;;;;;1.37;1.27;;;11.70;82.40;;;;;;5017916;28;20203;-85
2021/05/25 08:50:38;;;;;;;1.60;1.50;;;11.40;79.70;;;;;;5017915;28;20605;-85
2021/05/25 08:53:04;;;;;;;2.13;1.67;;;11.30;81.20;;;;;;5035615;28;20201;-86
2021/05/25 08:55:32;;;;;;;3.20;2.90;;;11.20;80.90;;;;;;5017933;28;20268;-86
2021/05/25 08:57:58;;;;;;;5.17;4.23;;;10.90;80.80;;;;;;5034586;28;20722;-86
2021/05/25 09:00:27;;;;;;;3.70;3.37;;;10.90;82.20;;;;;;5035479;28;20310;-85
2021/05/25 09:02:53;;;;;;;4.10;3.43;;;11.00;83.30;;;;;;5017652;28;20659;-86
2021/05/25 09:05:21;;;;;;;5.03;3.67;;;11.10;81.80;;;;;;5017653;28;20207;-86
2021/05/25 09:07:49;;;;;;;4.03;3.73;;;11.10;81.20;;;;;;5017366;28;20675;-86
2021/05/25 09:10:22;;;;;;;5.20;4.63;;;11.10;82.90;;;;;;5035945;28;20238;-86
2021/05/25 09:12:53;;;;;;;7.53;5.30;;;11.00;83.00;;;;;;5017450;28;20212;-86
2021/05/25 09:15:45;;;;;;;5.10;4.37;;;11.20;83.70;;;;;;5017488;28;20714;-86
2021/05/25 09:18:14;;;;;;;6.77;5.07;;;11.20;83.50;;;;;;5035116;28;20322;-85
2021/05/25 09:20:45;;;;;;;5.07;3.83;;;11.20;83.00;;;;;;5017330;28;20176;-85
2021/05/25 09:23:14;;;;;;;6.17;4.50;;;11.30;82.40;;;;;;5017306;28;20662;-85
2021/05/25 09:26:06;;;;;;;4.30;3.90;;;11.30;81.90;;;;;;5034982;28;20180;-85
2021/05/25 09:28:33;;;;;;;4.37;3.70;;;11.30;81.80;;;;;;5034897;28;20208;-85
2021/05/25 09:30:59;;;;;;;4.97;3.70;;;11.40;82.20;;;;;;5017078;28;20196;-85
2021/05/25 09:33:26;;;;;;;5.00;3.20;;;11.40;81.30;;;;;;5017151;28;20181;-85
2021/05/25 09:35:52;;;;;;;3.80;3.50;;;11.60;82.50;;;;;;5034849;28;20168;-85
2021/05/25 09:38:19;;;;;;;4.93;3.73;;;11.50;82.40;;;;;;5017028;28;20201;-85
2021/05/25 09:40:47;;;;;;;4.73;3.63;;;11.40;82.30;;;;;;5034897;28;20169;-85
2021/05/25 09:43:26;;;;;;;6.60;3.93;;;11.40;81.30;;;;;;5034706;28;20204;-85
2021/05/25 09:45:58;;;;;;;5.27;3.67;;;11.20;82.00;;;;;;5016933;28;20173;-85
2021/05/25 09:48:26;;;;;;;4.10;3.30;;;11.00;82.80;;;;;;5034517;28;20192;-85
2021/05/25 09:50:54;;;;;;;4.07;3.60;;;11.20;82.20;;;;;;5016833;28;20181;-84
2021/05/25 09:53:23;;;;;;;3.83;3.43;;;11.30;81.40;;;;;;5034693;28;20204;-86
2021/05/25 09:55:59;;;;;;;2.87;2.67;;;11.50;81.60;;;;;;5016721;28;20254;-86
2021/05/25 09:58:38;;;;;;;2.30;2.03;;;11.70;80.20;;;;;;5034345;28;20185;-85
2021/05/25 10:01:06;;;;;;;3.80;2.27;;;11.80;80.60;;;;;;5016622;28;20172;-85
2021/05/25 10:03:35;;;;;;;3.60;2.47;;;11.90;80.10;;;;;;5016682;28;20621;-86
2021/05/25 10:06:02;;;;;;;2.77;2.07;;;12.10;80.80;;;;;;5016443;28;20234;-85
2021/05/25 10:08:29;;;;;;;2.60;2.17;;;12.10;77.40;;;;;;5015962;28;20704;-85
2021/05/25 10:10:57;;;;;;;1.97;1.83;;;12.00;78.00;;;;;;5016422;28;20295;-86
2021/05/25 10:13:25;;;;;;;3.30;1.73;;;11.90;77.00;;;;;;5034084;28;20216;-85
2021/05/25 10:15:52;;;;;;;1.80;1.70;;;12.20;79.70;;;;;;5034042;28;20200;-85
2021/05/25 10:20:45;;;;;;;1.77;1.40;;;12.50;77.00;;;;;;5034197;28;20173;-85
2021/05/25 10:23:11;;;;;;;1.53;1.27;;;12.30;75.40;;;;;;5016204;28;20176;-85
2021/05/25 10:25:40;;;;;;;4.73;1.17;;;12.10;77.60;;;;;;5016259;28;20176;-86
2021/05/25 10:28:11;;;;;;;1.27;1.17;;;12.10;78.00;;;;;;5016070;28;20231;-85
2021/05/25 10:30:39;;;;;;;2.57;1.20;;;11.80;76.10;;;;;;5033849;28;20541;-85
2021/05/25 10:33:05;;;;;;;4.13;2.17;;;11.80;76.90;;;;;;5016088;28;20616;-84
2021/05/25 10:35:58;;;;;;;5.30;2.60;;;11.50;77.40;;;;;;5033703;28;20177;-85
2021/05/25 10:38:33;;;;;;;2.97;2.10;;;11.30;77.60;;;;;;5006407;28;20291;-84
2021/05/25 10:41:04;;;;;;;2.83;1.90;;;11.20;79.60;;;;;;5015927;28;20180;-85
2021/05/25 10:43:30;;;;;;;4.47;1.87;;;11.00;80.50;;;;;;5033919;28;20196;-85
2021/05/25 10:46:11;;;;;;;4.10;2.77;;;11.00;81.10;;;;;;5015886;28;20258;-86
2021/05/25 10:49:10;;;;;;;5.17;2.53;;;11.10;82.30;;;;;;5015713;28;20192;-87
2021/05/25 10:51:51;;;;;;;4.50;3.17;;;11.10;82.00;;;;;;5015728;28;20338;-87
2021/05/25 10:54:43;;;;;;;4.63;2.80;;;11.10;82.80;;;;;;5033457;28;20149;-87
2021/05/25 10:57:49;;;;;;;7.67;3.10;;;11.20;82.60;;;;;;5033425;28;20200;-85
2021/05/25 11:00:21;;;;;;;6.33;3.27;;;11.30;83.10;;;;;;4937442;29;20222;-84
2021/05/25 11:02:55;;;;;;;7.60;3.30;;;11.30;82.90;;;;;;5022944;28;20258;-84
2021/05/25 11:05:31;;;;;;;7.03;3.77;;;11.20;82.00;;;;;;5015521;28;20227;-84
2021/05/25 11:08:17;;;;;;;4.60;3.80;;;11.50;82.70;;;;;;5033002;28;20230;-85
2021/05/25 11:10:48;;;;;;;4.30;3.90;;;11.60;82.50;;;;;;5015371;28;20537;-84
2021/05/25 11:13:21;;;;;;;6.07;4.67;;;11.80;82.70;;;;;;5033092;28;20197;-84
2021/05/25 11:16:25;;;;;;;9.00;4.63;;;12.20;84.00;;;;;;5033187;28;20161;-84
2021/05/25 11:19:00;;;;;;;5.67;4.80;;;12.60;82.80;;;;;;5032877;28;20283;-86
2021/05/25 11:24:32;;;;;;;4.23;3.70;;;13.20;82.40;;;;;;5033203;28;20169;-86
2021/05/25 11:27:00;;;;;;;7.30;3.73;;;12.80;78.00;;;;;;5033381;28;20181;-86
2021/05/25 11:29:51;;;;;;;8.17;3.20;;;12.80;78.00;;;;;;5015268;28;20197;-85
2021/05/25 11:32:29;;;;;;;4.37;3.10;;;12.90;78.20;;;;;;5004161;28;20209;-86
2021/05/25 11:35:04;;;;;;;7.50;3.47;;;13.10;76.10;;;;;;5033054;28;20528;-86
2021/05/25 11:37:33;;;;;;;4.73;2.93;;;13.00;77.20;;;;;;5015355;28;20180;-86
2021/05/25 11:39:59;;;;;;;7.47;2.60;;;13.60;76.80;;;;;;5032946;28;20278;-86
2021/05/25 11:42:28;;;;;;;11.10;3.63;;;13.60;73.20;;;;;;5015329;28;20646;-85
2021/05/25 11:44:54;;;;;;;3.73;2.70;;;13.70;75.10;;;;;;5015214;28;20183;-85
2021/05/25 11:47:21;;;;;;;5.50;2.87;;;13.80;72.10;;;;;;5033161;28;20180;-85
2021/05/25 11:49:47;;;;;;;4.57;2.57;;;14.20;74.00;;;;;;5015070;28;20365;-85
2021/05/25 11:52:35;;;;;;;7.50;2.53;;;14.40;71.20;;;;;;5015089;28;20679;-85
2021/05/25 11:55:10;;;;;;;5.37;2.17;;;14.40;71.40;;;;;;5015418;28;20173;-85
2021/05/25 11:57:40;;;;;;;6.17;2.27;;;14.40;71.40;;;;;;5015041;28;20223;-86
2021/05/25 12:00:25;;;;;;;5.53;2.80;;;14.70;71.40;;;;;;5015052;28;20177;-86
2021/05/25 12:03:09;;;;;;;4.60;2.37;;;14.80;71.20;;;;;;5015297;28;20306;-83
2021/05/25 12:05:34;;;;;;;9.83;2.60;;;14.60;68.70;;;;;;5015110;28;20260;-83
2021/05/25 12:08:10;;;;;;;4.07;2.20;;;14.50;69.20;;;;;;5032694;28;20642;-83
2021/05/25 12:10:44;;;;;;;5.77;2.67;;;14.20;68.30;;;;;;5032717;28;20161;-83
2021/05/25 12:13:14;;;;;;;6.00;2.80;;;14.00;66.80;;;;;;5032806;28;20197;-83
2021/05/25 12:15:42;;;;;;;4.57;2.83;;;14.00;68.60;;;;;;5014942;28;20603;-83
2021/05/25 12:18:10;;;;;;;4.40;2.80;;;14.10;68.90;;;;;;5014983;28;20200;-83
2021/05/25 12:20:40;;;;;;;3.40;2.80;;;14.00;70.40;;;;;;5032826;28;20169;-83
2021/05/25 12:23:08;;;;;;;7.53;3.43;;;14.10;68.80;;;;;;5014908;28;20181;-83
2021/05/25 12:25:34;;;;;;;10.10;3.80;;;14.00;70.00;;;;;;5014864;28;20191;-83
2021/05/25 12:28:15;;;;;;;7.83;4.30;;;14.30;73.00;;;;;;5014721;28;20200;-83
2021/05/25 12:30:45;;;;;;;6.23;3.73;;;13.80;71.70;;;;;;5015161;28;20704;-83
2021/05/25 12:33:30;;;;;;;9.53;4.30;;;13.80;70.90;;;;;;5035919;28;20590;-83
2021/05/25 12:36:16;;;;;;;4.27;3.00;;;14.10;70.70;;;;;;5036328;28;20637;-83
2021/05/25 12:39:01;;;;;;;4.00;2.10;;;14.50;67.60;;;;;;5036164;28;20211;-83
2021/05/25 12:41:49;;;;;;;4.60;2.60;;;14.70;66.40;;;;;;5018990;28;20508;-83
2021/05/25 12:44:19;;;;;;;6.00;2.77;;;14.70;65.20;;;;;;5018161;28;20177;-83
2021/05/25 12:46:53;;;;;;;3.97;2.47;;;14.80;65.40;;;;;;5036049;28;20652;-83
2021/05/25 12:49:35;;;;;;;4.93;2.53;;;15.20;66.80;;;;;;5017956;28;20324;-83
2021/05/25 12:52:39;;;;;;;4.23;2.20;;;15.10;65.50;;;;;;5017979;28;20197;-83
2021/05/25 12:55:13;;;;;;;5.67;2.90;;;15.50;63.20;;;;;;4939631;29;20211;-83
2021/05/25 12:57:44;;;;;;;3.63;2.47;;;15.80;66.30;;;;;;4939601;28;20350;-83
2021/05/25 13:00:12;;;;;;;4.63;2.77;;;15.90;64.00;;;;;;4982919;28;20260;-83
2021/05/25 13:02:48;;;;;;;4.90;3.70;;;15.40;61.50;;;;;;5017948;28;20180;-83
2021/05/25 13:05:14;;;;;;;5.23;3.03;;;15.20;65.30;;;;;;5035689;28;20181;-83
2021/05/25 13:07:58;;;;;;;6.07;3.87;;;15.30;64.90;;;;;;5017607;28;20181;-83